sensor_id;sensor_type;location;lat;lon;timestamp;P1;durP1;ratioP1;P2;durP2;ratioP2
29538;SDS011;16482;51.046;4.498;2023-04-24T00:00:03;4.03;;;2.30;;
29538;SDS011;16482;51.046;4.498;2023-04-24T00:02:37;5.00;;;2.47;;
29538;SDS011;16482;51.046;4.498;2023-04-24T00:05:05;4.80;;;2.42;;
29538;SDS011;16482;51.046;4.498;2023-04-24T00:07:32;4.70;;;2.10;;
29538;SDS011;16482;51.046;4.498;2023-04-24T00:10:01;4.40;;;2.28;;
29538;SDS011;16482;51.046;4.498;2023-04-24T00:12:29;3.20;;;2.05;;
29538;SDS011;16482;51.046;4.498;2023-04-24T00:15:01;5.72;;;2.25;;
29538;SDS011;16482;51.046;4.498;2023-04-24T00:17:31;3.55;;;2.30;;
29538;SDS011;16482;51.046;4.498;2023-04-24T00:20:02;4.68;;;2.58;;
29538;SDS011;16482;51.046;4.498;2023-04-24T00:22:32;4.15;;;2.30;;
29538;SDS011;16482;51.046;4.498;2023-04-24T00:25:01;5.40;;;2.35;;
29538;SDS011;16482;51.046;4.498;2023-04-24T00:27:37;3.58;;;2.00;;
29538;SDS011;16482;51.046;4.498;2023-04-24T00:35:05;4.25;;;2.10;;
29538;SDS011;16482;51.046;4.498;2023-04-24T00:37:33;4.57;;;2.47;;
29538;SDS011;16482;51.046;4.498;2023-04-24T00:40:02;5.55;;;2.85;;
29538;SDS011;16482;51.046;4.498;2023-04-24T00:42:37;5.00;;;2.50;;
29538;SDS011;16482;51.046;4.498;2023-04-24T00:45:05;4.28;;;2.40;;
29538;SDS011;16482;51.046;4.498;2023-04-24T00:47:32;3.83;;;2.70;;
29538;SDS011;16482;51.046;4.498;2023-04-24T00:50:01;4.75;;;2.60;;
29538;SDS011;16482;51.046;4.498;2023-04-24T00:52:37;5.00;;;2.53;;
29538;SDS011;16482;51.046;4.498;2023-04-24T00:55:05;5.63;;;2.63;;
29538;SDS011;16482;51.046;4.498;2023-04-24T00:57:32;3.67;;;2.55;;
29538;SDS011;16482;51.046;4.498;2023-04-24T01:00:05;4.50;;;2.30;;
29538;SDS011;16482;51.046;4.498;2023-04-24T01:02:35;5.47;;;2.72;;
29538;SDS011;16482;51.046;4.498;2023-04-24T01:05:05;4.28;;;2.60;;
29538;SDS011;16482;51.046;4.498;2023-04-24T01:07:33;4.88;;;2.75;;
29538;SDS011;16482;51.046;4.498;2023-04-24T01:10:07;5.43;;;2.90;;
29538;SDS011;16482;51.046;4.498;2023-04-24T01:12:33;4.15;;;2.55;;
29538;SDS011;16482;51.046;4.498;2023-04-24T01:15:03;4.80;;;2.60;;
29538;SDS011;16482;51.046;4.498;2023-04-24T01:17:29;6.72;;;2.63;;
29538;SDS011;16482;51.046;4.498;2023-04-24T01:19:59;4.57;;;2.60;;
29538;SDS011;16482;51.046;4.498;2023-04-24T01:22:33;4.53;;;2.50;;
29538;SDS011;16482;51.046;4.498;2023-04-24T01:25:02;4.22;;;2.67;;
29538;SDS011;16482;51.046;4.498;2023-04-24T01:27:32;6.70;;;3.10;;
29538;SDS011;16482;51.046;4.498;2023-04-24T01:30:03;4.95;;;3.00;;
29538;SDS011;16482;51.046;4.498;2023-04-24T01:32:32;5.90;;;3.20;;
29538;SDS011;16482;51.046;4.498;2023-04-24T01:35:01;4.55;;;2.78;;
29538;SDS011;16482;51.046;4.498;2023-04-24T01:37:30;4.00;;;2.70;;
29538;SDS011;16482;51.046;4.498;2023-04-24T01:40:06;5.40;;;2.85;;
29538;SDS011;16482;51.046;4.498;2023-04-24T01:42:33;4.70;;;2.47;;
29538;SDS011;16482;51.046;4.498;2023-04-24T01:45:00;5.32;;;2.60;;
29538;SDS011;16482;51.046;4.498;2023-04-24T01:47:32;5.15;;;3.10;;
29538;SDS011;16482;51.046;4.498;2023-04-24T01:50:07;3.90;;;2.53;;
29538;SDS011;16482;51.046;4.498;2023-04-24T01:55:03;5.10;;;2.58;;
29538;SDS011;16482;51.046;4.498;2023-04-24T01:57:33;5.65;;;2.75;;
29538;SDS011;16482;51.046;4.498;2023-04-24T01:59:59;5.30;;;2.67;;
29538;SDS011;16482;51.046;4.498;2023-04-24T02:02:29;4.60;;;2.60;;
29538;SDS011;16482;51.046;4.498;2023-04-24T02:05:05;5.18;;;2.72;;
29538;SDS011;16482;51.046;4.498;2023-04-24T02:07:32;4.95;;;2.95;;
29538;SDS011;16482;51.046;4.498;2023-04-24T02:10:01;4.88;;;2.67;;
29538;SDS011;16482;51.046;4.498;2023-04-24T02:12:31;3.72;;;2.40;;
29538;SDS011;16482;51.046;4.498;2023-04-24T02:15:06;4.22;;;2.63;;
29538;SDS011;16482;51.046;4.498;2023-04-24T02:17:32;3.92;;;2.30;;
29538;SDS011;16482;51.046;4.498;2023-04-24T02:20:01;4.13;;;2.53;;
29538;SDS011;16482;51.046;4.498;2023-04-24T02:22:37;6.18;;;2.60;;
29538;SDS011;16482;51.046;4.498;2023-04-24T02:25:03;3.40;;;2.30;;
29538;SDS011;16482;51.046;4.498;2023-04-24T02:27:30;2.85;;;2.20;;
29538;SDS011;16482;51.046;4.498;2023-04-24T02:30:03;4.05;;;2.13;;
29538;SDS011;16482;51.046;4.498;2023-04-24T02:32:32;3.90;;;2.25;;
29538;SDS011;16482;51.046;4.498;2023-04-24T02:35:08;4.05;;;2.22;;
29538;SDS011;16482;51.046;4.498;2023-04-24T02:37:34;3.58;;;2.42;;
29538;SDS011;16482;51.046;4.498;2023-04-24T02:40:09;4.03;;;1.90;;
29538;SDS011;16482;51.046;4.498;2023-04-24T02:42:35;3.10;;;2.33;;
29538;SDS011;16482;51.046;4.498;2023-04-24T02:45:03;4.40;;;2.38;;
29538;SDS011;16482;51.046;4.498;2023-04-24T02:47:33;3.05;;;1.90;;
29538;SDS011;16482;51.046;4.498;2023-04-24T02:50:06;4.15;;;2.15;;
29538;SDS011;16482;51.046;4.498;2023-04-24T02:52:35;3.90;;;2.25;;
29538;SDS011;16482;51.046;4.498;2023-04-24T02:55:01;2.67;;;1.83;;
29538;SDS011;16482;51.046;4.498;2023-04-24T02:57:45;3.35;;;2.30;;
29538;SDS011;16482;51.046;4.498;2023-04-24T03:00:11;4.05;;;2.15;;
29538;SDS011;16482;51.046;4.498;2023-04-24T03:02:38;3.38;;;2.05;;
29538;SDS011;16482;51.046;4.498;2023-04-24T03:05:04;4.03;;;2.20;;
29538;SDS011;16482;51.046;4.498;2023-04-24T03:07:33;3.53;;;2.50;;
29538;SDS011;16482;51.046;4.498;2023-04-24T03:10:06;4.15;;;2.40;;
29538;SDS011;16482;51.046;4.498;2023-04-24T03:12:35;2.92;;;2.17;;
29538;SDS011;16482;51.046;4.498;2023-04-24T03:15:01;2.83;;;1.92;;
29538;SDS011;16482;51.046;4.498;2023-04-24T03:17:27;2.67;;;1.90;;
29538;SDS011;16482;51.046;4.498;2023-04-24T03:20:02;3.55;;;2.20;;
29538;SDS011;16482;51.046;4.498;2023-04-24T03:22:32;3.15;;;2.05;;
29538;SDS011;16482;51.046;4.498;2023-04-24T03:25:06;4.15;;;2.30;;
29538;SDS011;16482;51.046;4.498;2023-04-24T03:27:36;4.40;;;2.17;;
29538;SDS011;16482;51.046;4.498;2023-04-24T03:30:05;3.97;;;1.80;;
29538;SDS011;16482;51.046;4.498;2023-04-24T03:32:34;2.53;;;1.95;;
29538;SDS011;16482;51.046;4.498;2023-04-24T03:35:03;2.45;;;1.80;;
29538;SDS011;16482;51.046;4.498;2023-04-24T03:37:39;4.47;;;2.30;;
29538;SDS011;16482;51.046;4.498;2023-04-24T03:40:05;3.05;;;2.00;;
29538;SDS011;16482;51.046;4.498;2023-04-24T03:42:34;3.50;;;1.98;;
29538;SDS011;16482;51.046;4.498;2023-04-24T03:45:03;4.53;;;1.88;;
29538;SDS011;16482;51.046;4.498;2023-04-24T03:47:37;3.40;;;2.10;;
29538;SDS011;16482;51.046;4.498;2023-04-24T03:50:03;2.75;;;2.03;;
29538;SDS011;16482;51.046;4.498;2023-04-24T03:52:31;3.10;;;1.65;;
29538;SDS011;16482;51.046;4.498;2023-04-24T03:55:02;2.50;;;2.00;;
29538;SDS011;16482;51.046;4.498;2023-04-24T03:57:36;2.65;;;1.80;;
29538;SDS011;16482;51.046;4.498;2023-04-24T04:00:04;2.90;;;1.63;;
29538;SDS011;16482;51.046;4.498;2023-04-24T04:02:38;2.90;;;2.10;;
29538;SDS011;16482;51.046;4.498;2023-04-24T04:05:04;1.92;;;1.60;;
29538;SDS011;16482;51.046;4.498;2023-04-24T04:07:38;2.55;;;1.95;;
29538;SDS011;16482;51.046;4.498;2023-04-24T04:10:04;2.60;;;1.95;;
29538;SDS011;16482;51.046;4.498;2023-04-24T04:12:32;2.47;;;1.80;;
29538;SDS011;16482;51.046;4.498;2023-04-24T04:14:58;2.50;;;1.95;;
29538;SDS011;16482;51.046;4.498;2023-04-24T04:17:35;1.67;;;1.58;;
29538;SDS011;16482;51.046;4.498;2023-04-24T04:20:03;2.38;;;1.90;;
29538;SDS011;16482;51.046;4.498;2023-04-24T04:22:33;3.00;;;1.98;;
29538;SDS011;16482;51.046;4.498;2023-04-24T04:25:07;3.00;;;1.88;;
29538;SDS011;16482;51.046;4.498;2023-04-24T04:27:35;1.88;;;1.70;;
29538;SDS011;16482;51.046;4.498;2023-04-24T04:30:04;2.97;;;1.65;;
29538;SDS011;16482;51.046;4.498;2023-04-24T04:32:33;2.80;;;2.03;;
29538;SDS011;16482;51.046;4.498;2023-04-24T04:35:02;3.00;;;1.90;;
29538;SDS011;16482;51.046;4.498;2023-04-24T04:37:36;2.45;;;1.70;;
29538;SDS011;16482;51.046;4.498;2023-04-24T04:40:03;2.47;;;1.90;;
29538;SDS011;16482;51.046;4.498;2023-04-24T04:42:34;2.55;;;1.85;;
29538;SDS011;16482;51.046;4.498;2023-04-24T04:45:06;2.30;;;2.00;;
29538;SDS011;16482;51.046;4.498;2023-04-24T04:50:04;2.88;;;1.90;;
29538;SDS011;16482;51.046;4.498;2023-04-24T04:52:33;2.80;;;2.00;;
29538;SDS011;16482;51.046;4.498;2023-04-24T04:55:08;2.00;;;1.83;;
29538;SDS011;16482;51.046;4.498;2023-04-24T04:57:34;2.50;;;1.63;;
29538;SDS011;16482;51.046;4.498;2023-04-24T05:00:03;2.45;;;1.73;;
29538;SDS011;16482;51.046;4.498;2023-04-24T05:02:37;1.92;;;1.70;;
29538;SDS011;16482;51.046;4.498;2023-04-24T05:05:06;1.98;;;1.58;;
29538;SDS011;16482;51.046;4.498;2023-04-24T05:07:32;2.72;;;1.90;;
29538;SDS011;16482;51.046;4.498;2023-04-24T05:10:08;2.00;;;1.80;;
29538;SDS011;16482;51.046;4.498;2023-04-24T05:12:38;2.75;;;1.90;;
29538;SDS011;16482;51.046;4.498;2023-04-24T05:15:04;1.88;;;1.70;;
29538;SDS011;16482;51.046;4.498;2023-04-24T05:17:33;2.40;;;1.80;;
29538;SDS011;16482;51.046;4.498;2023-04-24T05:20:02;2.03;;;1.80;;
29538;SDS011;16482;51.046;4.498;2023-04-24T05:22:33;2.10;;;1.67;;
29538;SDS011;16482;51.046;4.498;2023-04-24T05:25:06;2.80;;;1.98;;
29538;SDS011;16482;51.046;4.498;2023-04-24T05:27:32;2.40;;;2.00;;
29538;SDS011;16482;51.046;4.498;2023-04-24T05:30:04;2.47;;;1.98;;
29538;SDS011;16482;51.046;4.498;2023-04-24T05:32:33;3.08;;;1.83;;
29538;SDS011;16482;51.046;4.498;2023-04-24T05:35:06;2.28;;;2.08;;
29538;SDS011;16482;51.046;4.498;2023-04-24T05:37:33;2.13;;;1.85;;
29538;SDS011;16482;51.046;4.498;2023-04-24T05:40:08;2.72;;;2.10;;
29538;SDS011;16482;51.046;4.498;2023-04-24T05:42:35;2.88;;;2.00;;
29538;SDS011;16482;51.046;4.498;2023-04-24T05:45:10;3.08;;;2.35;;
29538;SDS011;16482;51.046;4.498;2023-04-24T05:47:41;3.45;;;2.22;;
29538;SDS011;16482;51.046;4.498;2023-04-24T05:50:09;3.45;;;2.25;;
29538;SDS011;16482;51.046;4.498;2023-04-24T05:52:35;2.90;;;2.00;;
29538;SDS011;16482;51.046;4.498;2023-04-24T05:55:04;3.55;;;2.70;;
29538;SDS011;16482;51.046;4.498;2023-04-24T05:57:39;3.72;;;2.60;;
29538;SDS011;16482;51.046;4.498;2023-04-24T06:00:05;4.20;;;2.70;;
29538;SDS011;16482;51.046;4.498;2023-04-24T06:02:32;3.90;;;2.90;;
29538;SDS011;16482;51.046;4.498;2023-04-24T06:05:01;4.35;;;2.97;;
29538;SDS011;16482;51.046;4.498;2023-04-24T06:07:35;3.75;;;2.75;;
29538;SDS011;16482;51.046;4.498;2023-04-24T06:10:08;3.63;;;2.80;;
29538;SDS011;16482;51.046;4.498;2023-04-24T06:12:38;3.85;;;3.00;;
29538;SDS011;16482;51.046;4.498;2023-04-24T06:15:04;3.83;;;2.83;;
29538;SDS011;16482;51.046;4.498;2023-04-24T06:17:31;4.13;;;3.00;;
29538;SDS011;16482;51.046;4.498;2023-04-24T06:20:05;4.03;;;2.88;;
29538;SDS011;16482;51.046;4.498;2023-04-24T06:22:32;4.95;;;3.28;;
29538;SDS011;16482;51.046;4.498;2023-04-24T06:24:57;4.50;;;3.10;;
29538;SDS011;16482;51.046;4.498;2023-04-24T06:27:38;3.90;;;3.15;;
29538;SDS011;16482;51.046;4.498;2023-04-24T06:30:04;4.85;;;3.10;;
29538;SDS011;16482;51.046;4.498;2023-04-24T06:32:33;4.03;;;3.25;;
29538;SDS011;16482;51.046;4.498;2023-04-24T06:35:02;3.50;;;2.95;;
29538;SDS011;16482;51.046;4.498;2023-04-24T06:37:35;4.93;;;3.20;;
29538;SDS011;16482;51.046;4.498;2023-04-24T06:40:04;3.45;;;2.92;;
29538;SDS011;16482;51.046;4.498;2023-04-24T06:42:33;4.82;;;3.20;;
29538;SDS011;16482;51.046;4.498;2023-04-24T06:45:04;4.18;;;3.00;;
29538;SDS011;16482;51.046;4.498;2023-04-24T06:47:40;4.60;;;3.20;;
29538;SDS011;16482;51.046;4.498;2023-04-24T06:50:06;5.53;;;3.72;;
29538;SDS011;16482;51.046;4.498;2023-04-24T06:52:35;4.40;;;3.22;;
29538;SDS011;16482;51.046;4.498;2023-04-24T06:55:04;3.97;;;3.08;;
29538;SDS011;16482;51.046;4.498;2023-04-24T06:57:33;3.60;;;2.97;;
29538;SDS011;16482;51.046;4.498;2023-04-24T07:00:08;4.72;;;3.20;;
29538;SDS011;16482;51.046;4.498;2023-04-24T07:07:36;4.13;;;3.10;;
29538;SDS011;16482;51.046;4.498;2023-04-24T07:10:05;4.22;;;3.30;;
29538;SDS011;16482;51.046;4.498;2023-04-24T07:12:39;3.88;;;3.00;;
29538;SDS011;16482;51.046;4.498;2023-04-24T07:15:05;4.03;;;3.10;;
29538;SDS011;16482;51.046;4.498;2023-04-24T07:17:33;4.20;;;2.85;;
29538;SDS011;16482;51.046;4.498;2023-04-24T07:20:02;3.55;;;2.95;;
29538;SDS011;16482;51.046;4.498;2023-04-24T07:22:36;4.00;;;2.95;;
29538;SDS011;16482;51.046;4.498;2023-04-24T07:25:03;4.90;;;3.40;;
29538;SDS011;16482;51.046;4.498;2023-04-24T07:27:39;4.28;;;3.00;;
29538;SDS011;16482;51.046;4.498;2023-04-24T07:30:05;4.18;;;3.40;;
29538;SDS011;16482;51.046;4.498;2023-04-24T07:32:39;5.22;;;3.50;;
29538;SDS011;16482;51.046;4.498;2023-04-24T07:35:05;4.55;;;3.05;;
29538;SDS011;16482;51.046;4.498;2023-04-24T07:37:34;4.88;;;3.22;;
29538;SDS011;16482;51.046;4.498;2023-04-24T07:40:03;3.75;;;2.92;;
29538;SDS011;16482;51.046;4.498;2023-04-24T07:42:33;6.05;;;3.33;;
29538;SDS011;16482;51.046;4.498;2023-04-24T07:45:02;4.45;;;3.30;;
29538;SDS011;16482;51.046;4.498;2023-04-24T07:47:36;5.15;;;3.20;;
29538;SDS011;16482;51.046;4.498;2023-04-24T07:50:05;4.13;;;3.30;;
29538;SDS011;16482;51.046;4.498;2023-04-24T07:52:34;4.43;;;3.05;;
29538;SDS011;16482;51.046;4.498;2023-04-24T07:55:03;5.43;;;3.45;;
29538;SDS011;16482;51.046;4.498;2023-04-24T07:57:32;4.03;;;3.17;;
29538;SDS011;16482;51.046;4.498;2023-04-24T08:00:05;5.20;;;3.20;;
29538;SDS011;16482;51.046;4.498;2023-04-24T08:02:35;3.75;;;3.17;;
29538;SDS011;16482;51.046;4.498;2023-04-24T08:05:08;4.18;;;2.67;;
29538;SDS011;16482;51.046;4.498;2023-04-24T08:07:34;4.30;;;3.13;;
29538;SDS011;16482;51.046;4.498;2023-04-24T08:10:10;7.00;;;3.30;;
29538;SDS011;16482;51.046;4.498;2023-04-24T08:12:36;4.85;;;3.10;;
29538;SDS011;16482;51.046;4.498;2023-04-24T08:15:03;5.07;;;3.50;;
29538;SDS011;16482;51.046;4.498;2023-04-24T08:17:37;4.80;;;3.10;;
29538;SDS011;16482;51.046;4.498;2023-04-24T08:20:05;4.63;;;3.25;;
29538;SDS011;16482;51.046;4.498;2023-04-24T08:22:38;7.07;;;3.50;;
29538;SDS011;16482;51.046;4.498;2023-04-24T08:25:05;4.68;;;3.30;;
29538;SDS011;16482;51.046;4.498;2023-04-24T08:27:34;4.72;;;3.30;;
29538;SDS011;16482;51.046;4.498;2023-04-24T08:30:01;4.63;;;3.03;;
29538;SDS011;16482;51.046;4.498;2023-04-24T08:32:37;5.82;;;3.83;;
29538;SDS011;16482;51.046;4.498;2023-04-24T08:35:03;4.80;;;3.20;;
29538;SDS011;16482;51.046;4.498;2023-04-24T08:37:32;7.20;;;3.72;;
29538;SDS011;16482;51.046;4.498;2023-04-24T08:40:06;6.82;;;3.80;;
29538;SDS011;16482;51.046;4.498;2023-04-24T08:42:38;7.97;;;4.20;;
29538;SDS011;16482;51.046;4.498;2023-04-24T08:45:05;7.13;;;4.05;;
29538;SDS011;16482;51.046;4.498;2023-04-24T08:47:31;6.55;;;4.20;;
29538;SDS011;16482;51.046;4.498;2023-04-24T08:50:05;6.32;;;4.32;;
29538;SDS011;16482;51.046;4.498;2023-04-24T08:52:32;6.70;;;4.32;;
29538;SDS011;16482;51.046;4.498;2023-04-24T08:55:08;7.07;;;4.10;;
29538;SDS011;16482;51.046;4.498;2023-04-24T08:57:34;8.20;;;4.05;;
29538;SDS011;16482;51.046;4.498;2023-04-24T09:00:03;7.22;;;4.28;;
29538;SDS011;16482;51.046;4.498;2023-04-24T09:02:34;7.80;;;4.68;;
29538;SDS011;16482;51.046;4.498;2023-04-24T09:05:05;7.18;;;4.30;;
29538;SDS011;16482;51.046;4.498;2023-04-24T09:07:32;6.25;;;4.68;;
29538;SDS011;16482;51.046;4.498;2023-04-24T09:10:03;7.75;;;4.60;;
29538;SDS011;16482;51.046;4.498;2023-04-24T09:12:38;5.70;;;4.43;;
29538;SDS011;16482;51.046;4.498;2023-04-24T09:15:07;10.25;;;5.00;;
29538;SDS011;16482;51.046;4.498;2023-04-24T09:17:36;7.63;;;4.32;;
29538;SDS011;16482;51.046;4.498;2023-04-24T09:20:03;9.23;;;5.18;;
29538;SDS011;16482;51.046;4.498;2023-04-24T09:22:32;6.75;;;4.80;;
29538;SDS011;16482;51.046;4.498;2023-04-24T09:25:04;9.50;;;5.00;;
29538;SDS011;16482;51.046;4.498;2023-04-24T09:27:42;7.30;;;4.93;;
29538;SDS011;16482;51.046;4.498;2023-04-24T09:30:11;8.00;;;4.72;;
29538;SDS011;16482;51.046;4.498;2023-04-24T09:32:38;8.35;;;5.50;;
29538;SDS011;16482;51.046;4.498;2023-04-24T09:37:40;6.85;;;4.82;;
29538;SDS011;16482;51.046;4.498;2023-04-24T09:40:08;8.18;;;4.88;;
29538;SDS011;16482;51.046;4.498;2023-04-24T09:42:45;6.18;;;4.90;;
29538;SDS011;16482;51.046;4.498;2023-04-24T09:45:11;8.48;;;5.03;;
29538;SDS011;16482;51.046;4.498;2023-04-24T09:47:38;7.25;;;4.80;;
29538;SDS011;16482;51.046;4.498;2023-04-24T09:50:14;8.18;;;4.88;;
29538;SDS011;16482;51.046;4.498;2023-04-24T09:52:46;7.57;;;4.63;;
29538;SDS011;16482;51.046;4.498;2023-04-24T09:55:20;8.20;;;4.53;;
29538;SDS011;16482;51.046;4.498;2023-04-24T09:57:47;6.57;;;4.70;;
29538;SDS011;16482;51.046;4.498;2023-04-24T10:00:18;9.10;;;4.80;;
29538;SDS011;16482;51.046;4.498;2023-04-24T10:02:49;6.18;;;4.70;;
29538;SDS011;16482;51.046;4.498;2023-04-24T10:05:17;7.50;;;5.05;;
29538;SDS011;16482;51.046;4.498;2023-04-24T10:07:43;7.18;;;4.90;;
29538;SDS011;16482;51.046;4.498;2023-04-24T10:10:09;7.47;;;4.88;;
29538;SDS011;16482;51.046;4.498;2023-04-24T10:12:36;7.18;;;4.82;;
29538;SDS011;16482;51.046;4.498;2023-04-24T10:15:05;9.82;;;4.78;;
29538;SDS011;16482;51.046;4.498;2023-04-24T10:17:35;6.75;;;4.72;;
29538;SDS011;16482;51.046;4.498;2023-04-24T10:20:04;6.45;;;4.35;;
29538;SDS011;16482;51.046;4.498;2023-04-24T10:22:34;9.55;;;5.47;;
29538;SDS011;16482;51.046;4.498;2023-04-24T10:25:10;8.98;;;5.15;;
29538;SDS011;16482;51.046;4.498;2023-04-24T10:27:37;6.63;;;4.35;;
29538;SDS011;16482;51.046;4.498;2023-04-24T10:30:04;10.23;;;5.32;;
29538;SDS011;16482;51.046;4.498;2023-04-24T10:32:31;8.00;;;4.93;;
29538;SDS011;16482;51.046;4.498;2023-04-24T10:35:05;8.75;;;5.03;;
29538;SDS011;16482;51.046;4.498;2023-04-24T10:37:43;11.77;;;5.40;;
29538;SDS011;16482;51.046;4.498;2023-04-24T10:40:25;6.22;;;4.40;;
29538;SDS011;16482;51.046;4.498;2023-04-24T10:42:54;7.57;;;4.90;;
29538;SDS011;16482;51.046;4.498;2023-04-24T10:45:22;6.38;;;4.60;;
29538;SDS011;16482;51.046;4.498;2023-04-24T10:47:53;7.28;;;4.57;;
29538;SDS011;16482;51.046;4.498;2023-04-24T10:50:41;7.57;;;4.60;;
29538;SDS011;16482;51.046;4.498;2023-04-24T10:53:15;9.02;;;5.05;;
29538;SDS011;16482;51.046;4.498;2023-04-24T10:58:40;7.78;;;4.50;;
29538;SDS011;16482;51.046;4.498;2023-04-24T11:01:31;7.85;;;4.88;;
29538;SDS011;16482;51.046;4.498;2023-04-24T11:04:00;6.30;;;4.50;;
29538;SDS011;16482;51.046;4.498;2023-04-24T11:06:28;7.18;;;4.47;;
29538;SDS011;16482;51.046;4.498;2023-04-24T11:09:09;5.60;;;4.13;;
29538;SDS011;16482;51.046;4.498;2023-04-24T11:11:46;7.20;;;4.40;;
29538;SDS011;16482;51.046;4.498;2023-04-24T11:14:15;5.25;;;3.80;;
29538;SDS011;16482;51.046;4.498;2023-04-24T11:16:51;5.75;;;4.25;;
29538;SDS011;16482;51.046;4.498;2023-04-24T11:19:20;5.88;;;4.05;;
29538;SDS011;16482;51.046;4.498;2023-04-24T11:21:47;5.95;;;3.95;;
29538;SDS011;16482;51.046;4.498;2023-04-24T11:24:26;6.72;;;4.28;;
29538;SDS011;16482;51.046;4.498;2023-04-24T11:26:56;6.30;;;4.15;;
29538;SDS011;16482;51.046;4.498;2023-04-24T11:29:46;7.60;;;4.53;;
29538;SDS011;16482;51.046;4.498;2023-04-24T11:35:05;9.10;;;4.20;;
29538;SDS011;16482;51.046;4.498;2023-04-24T11:37:46;5.35;;;4.30;;
29538;SDS011;16482;51.046;4.498;2023-04-24T11:40:16;11.90;;;4.07;;
29538;SDS011;16482;51.046;4.498;2023-04-24T11:42:46;6.35;;;4.13;;
29538;SDS011;16482;51.046;4.498;2023-04-24T11:45:14;7.45;;;3.85;;
29538;SDS011;16482;51.046;4.498;2023-04-24T11:47:41;5.20;;;3.78;;
29538;SDS011;16482;51.046;4.498;2023-04-24T11:50:10;6.95;;;3.95;;
29538;SDS011;16482;51.046;4.498;2023-04-24T11:52:38;5.68;;;4.00;;
29538;SDS011;16482;51.046;4.498;2023-04-24T11:57:48;7.13;;;4.18;;
29538;SDS011;16482;51.046;4.498;2023-04-24T12:02:46;6.78;;;3.83;;
29538;SDS011;16482;51.046;4.498;2023-04-24T12:05:28;7.15;;;4.10;;
29538;SDS011;16482;51.046;4.498;2023-04-24T12:07:56;5.22;;;4.07;;
29538;SDS011;16482;51.046;4.498;2023-04-24T12:10:22;5.63;;;3.88;;
29538;SDS011;16482;51.046;4.498;2023-04-24T12:12:50;5.78;;;3.60;;
29538;SDS011;16482;51.046;4.498;2023-04-24T12:15:17;5.95;;;3.70;;
29538;SDS011;16482;51.046;4.498;2023-04-24T12:17:44;8.63;;;4.13;;
29538;SDS011;16482;51.046;4.498;2023-04-24T12:20:11;7.32;;;4.15;;
29538;SDS011;16482;51.046;4.498;2023-04-24T12:22:45;7.47;;;4.07;;
29538;SDS011;16482;51.046;4.498;2023-04-24T12:25:21;6.18;;;3.65;;
29538;SDS011;16482;51.046;4.498;2023-04-24T12:27:53;8.70;;;4.00;;
29538;SDS011;16482;51.046;4.498;2023-04-24T12:30:39;6.35;;;3.58;;
29538;SDS011;16482;51.046;4.498;2023-04-24T12:33:10;6.72;;;3.50;;
29538;SDS011;16482;51.046;4.498;2023-04-24T12:35:36;5.43;;;3.75;;
29538;SDS011;16482;51.046;4.498;2023-04-24T12:38:09;9.45;;;4.15;;
29538;SDS011;16482;51.046;4.498;2023-04-24T12:40:39;6.57;;;3.60;;
29538;SDS011;16482;51.046;4.498;2023-04-24T12:43:13;5.15;;;3.45;;
29538;SDS011;16482;51.046;4.498;2023-04-24T12:45:40;6.45;;;3.92;;
29538;SDS011;16482;51.046;4.498;2023-04-24T12:48:06;5.55;;;3.53;;
29538;SDS011;16482;51.046;4.498;2023-04-24T12:50:32;5.43;;;3.33;;
29538;SDS011;16482;51.046;4.498;2023-04-24T12:52:58;4.97;;;3.80;;
29538;SDS011;16482;51.046;4.498;2023-04-24T12:55:24;5.75;;;3.67;;
29538;SDS011;16482;51.046;4.498;2023-04-24T12:57:50;5.78;;;3.38;;
29538;SDS011;16482;51.046;4.498;2023-04-24T13:00:18;6.25;;;3.50;;
29538;SDS011;16482;51.046;4.498;2023-04-24T13:02:44;5.07;;;3.35;;
29538;SDS011;16482;51.046;4.498;2023-04-24T13:05:10;6.20;;;3.70;;
29538;SDS011;16482;51.046;4.498;2023-04-24T13:07:36;8.30;;;3.45;;
29538;SDS011;16482;51.046;4.498;2023-04-24T13:10:05;5.85;;;3.40;;
29538;SDS011;16482;51.046;4.498;2023-04-24T13:12:34;7.15;;;3.55;;
29538;SDS011;16482;51.046;4.498;2023-04-24T13:15:04;4.88;;;3.50;;
29538;SDS011;16482;51.046;4.498;2023-04-24T13:17:40;5.57;;;3.35;;
29538;SDS011;16482;51.046;4.498;2023-04-24T13:20:06;6.72;;;3.35;;
29538;SDS011;16482;51.046;4.498;2023-04-24T13:22:35;7.57;;;3.50;;
29538;SDS011;16482;51.046;4.498;2023-04-24T13:25:05;7.20;;;3.17;;
29538;SDS011;16482;51.046;4.498;2023-04-24T13:27:32;5.00;;;3.50;;
29538;SDS011;16482;51.046;4.498;2023-04-24T13:30:05;5.45;;;3.30;;
29538;SDS011;16482;51.046;4.498;2023-04-24T13:32:32;4.30;;;3.08;;
29538;SDS011;16482;51.046;4.498;2023-04-24T13:35:07;4.43;;;2.63;;
29538;SDS011;16482;51.046;4.498;2023-04-24T13:37:36;4.97;;;3.05;;
29538;SDS011;16482;51.046;4.498;2023-04-24T13:40:05;4.88;;;3.05;;
29538;SDS011;16482;51.046;4.498;2023-04-24T13:42:34;5.15;;;2.88;;
29538;SDS011;16482;51.046;4.498;2023-04-24T13:45:04;3.88;;;2.80;;
29538;SDS011;16482;51.046;4.498;2023-04-24T13:47:37;4.55;;;2.83;;
29538;SDS011;16482;51.046;4.498;2023-04-24T13:50:06;6.72;;;3.05;;
29538;SDS011;16482;51.046;4.498;2023-04-24T13:52:36;4.93;;;2.80;;
29538;SDS011;16482;51.046;4.498;2023-04-24T13:55:04;4.18;;;2.47;;
29538;SDS011;16482;51.046;4.498;2023-04-24T13:57:38;5.07;;;2.58;;
29538;SDS011;16482;51.046;4.498;2023-04-24T14:00:04;5.32;;;2.63;;
29538;SDS011;16482;51.046;4.498;2023-04-24T14:02:35;4.15;;;3.00;;
29538;SDS011;16482;51.046;4.498;2023-04-24T14:05:09;4.65;;;2.70;;
29538;SDS011;16482;51.046;4.498;2023-04-24T14:07:36;3.60;;;2.53;;
29538;SDS011;16482;51.046;4.498;2023-04-24T14:10:05;4.20;;;2.70;;
29538;SDS011;16482;51.046;4.498;2023-04-24T14:12:40;5.38;;;2.17;;
29538;SDS011;16482;51.046;4.498;2023-04-24T14:15:07;4.85;;;2.30;;
29538;SDS011;16482;51.046;4.498;2023-04-24T14:17:36;4.57;;;2.63;;
29538;SDS011;16482;51.046;4.498;2023-04-24T14:20:05;4.05;;;2.60;;
29538;SDS011;16482;51.046;4.498;2023-04-24T14:22:35;3.60;;;2.28;;
29538;SDS011;16482;51.046;4.498;2023-04-24T14:25:04;5.00;;;2.63;;
29538;SDS011;16482;51.046;4.498;2023-04-24T14:27:40;3.13;;;2.13;;
29538;SDS011;16482;51.046;4.498;2023-04-24T14:30:09;3.58;;;2.22;;
29538;SDS011;16482;51.046;4.498;2023-04-24T14:32:37;3.70;;;2.20;;
29538;SDS011;16482;51.046;4.498;2023-04-24T14:35:04;3.72;;;2.35;;
29538;SDS011;16482;51.046;4.498;2023-04-24T14:37:40;3.22;;;2.05;;
29538;SDS011;16482;51.046;4.498;2023-04-24T14:40:08;4.72;;;2.05;;
29538;SDS011;16482;51.046;4.498;2023-04-24T14:42:37;3.25;;;1.98;;
29538;SDS011;16482;51.046;4.498;2023-04-24T14:45:03;3.55;;;1.95;;
29538;SDS011;16482;51.046;4.498;2023-04-24T14:47:31;3.22;;;1.90;;
29538;SDS011;16482;51.046;4.498;2023-04-24T14:50:06;3.30;;;2.17;;
29538;SDS011;16482;51.046;4.498;2023-04-24T14:52:35;4.82;;;2.15;;
29538;SDS011;16482;51.046;4.498;2023-04-24T14:55:10;3.45;;;2.10;;
29538;SDS011;16482;51.046;4.498;2023-04-24T14:57:36;3.83;;;1.92;;
29538;SDS011;16482;51.046;4.498;2023-04-24T15:00:05;2.90;;;1.90;;
29538;SDS011;16482;51.046;4.498;2023-04-24T15:02:36;2.42;;;1.75;;
29538;SDS011;16482;51.046;4.498;2023-04-24T15:05:06;2.83;;;1.80;;
29538;SDS011;16482;51.046;4.498;2023-04-24T15:07:35;4.88;;;2.00;;
29538;SDS011;16482;51.046;4.498;2023-04-24T15:10:05;3.10;;;1.88;;
29538;SDS011;16482;51.046;4.498;2023-04-24T15:12:39;2.50;;;1.75;;
29538;SDS011;16482;51.046;4.498;2023-04-24T15:15:05;3.33;;;2.10;;
29538;SDS011;16482;51.046;4.498;2023-04-24T15:17:34;3.35;;;2.08;;
29538;SDS011;16482;51.046;4.498;2023-04-24T15:20:03;2.25;;;1.75;;
29538;SDS011;16482;51.046;4.498;2023-04-24T15:22:40;2.33;;;1.75;;
29538;SDS011;16482;51.046;4.498;2023-04-24T15:25:06;1.92;;;1.60;;
29538;SDS011;16482;51.046;4.498;2023-04-24T15:27:39;3.50;;;1.70;;
29538;SDS011;16482;51.046;4.498;2023-04-24T15:32:34;4.75;;;1.83;;
29538;SDS011;16482;51.046;4.498;2023-04-24T15:35:07;3.50;;;1.80;;